• Join FlightAware (Why Join?)
  • Login
  • US Flag 
01:07PM EDT


 

Airport Tracker/Info


-or-


 

Live Flight TrackerFlight Track Log ✈ N789EX ✈ 14-Jan-2014 ✈ KMWH - KBFI

Flight Track Log - Related Links

Times and Time Zones

All times are in EST time to prevent confusion due to time zone crossing. See the N789EX flight status page for this flight to view local times or setup timezone preferences in your user account.

Time Position Orientation Groundspeed Altitude Reporting Facility
EST Latitude Longitude Course Direction KTS MPH feet Rate Location/Type
07:18PM 47.2871 -119.9827 296° West  Level Estimated
07:18PM 47.4148 -119.9310 296° West 391 450 17,400  Level FlightAware ADS-B
07:18PM 47.4439 -120.0130 298° West 403 464 17,400  Level FlightAware ADS-B
07:19PM 47.4702 -120.0870 298° West 406 467 17,400  Level FlightAware ADS-B
07:19PM 47.4971 -120.1630 298° West 403 464 17,400  Level FlightAware ADS-B
07:20PM 47.5364 -120.2740 298° West 398 458 17,400  Level FlightAware ADS-B
07:21PM 47.5705 -120.3710 298° West 400 460 17,400  Level FlightAware ADS-B
07:21PM 47.6010 -120.4580 297° West 402 463 17,400  Level FlightAware ADS-B
07:22PM 47.6267 -120.5320 297° West 401 461 17,400  Level FlightAware ADS-B
07:22PM 47.6543 -120.6110 297° West 399 459 17,400  Level FlightAware ADS-B
07:23PM 47.6798 -120.6850 297° West 397 457 17,400  Level FlightAware ADS-B
07:23PM 47.7053 -120.7580 297° West 398 458 17,400  Level FlightAware ADS-B
07:24PM 47.7305 -120.8310 297° West 399 459 17,400  Level FlightAware ADS-B
07:24PM 47.7558 -120.9050 297° West 401 461 17,400  Level FlightAware ADS-B
07:25PM 47.7812 -120.9790 297° West 398 458 17,400 480 Level FlightAware ADS-B
07:25PM 47.8061 -121.0520 297° West 396 456 17,900 540 Climbing FlightAware ADS-B
07:26PM 47.8315 -121.1260 297° West 398 458 18,000 120 Climbing FlightAware ADS-B
07:26PM 47.8418 -121.1580 296° West 396 456 18,000 -1,440 Level FlightAware ADS-B
07:26PM 47.8494 -121.1880 291° West 392 451 17,400 -3,480 Descending FlightAware ADS-B
07:26PM 47.8541 -121.2130 286° West 395 455 16,800 -3,660 Descending FlightAware ADS-B
07:27PM 47.8582 -121.2490 280° West 389 448 16,000 -3,600 Descending FlightAware ADS-B
07:27PM 47.8629 -121.3290 275° West 376 433 14,200 -3,600 Descending FlightAware ADS-B
07:28PM 47.8676 -121.4040 275° West 362 417 12,400 -2,940 Descending FlightAware ADS-B
07:28PM 47.8724 -121.4780 276° West 349 402 11,300 -1,500 Descending FlightAware ADS-B
07:29PM 47.8768 -121.5460 276° West 317 365 10,900 -600 Descending FlightAware ADS-B
07:29PM 47.8807 -121.6090 275° West 289 333 10,700 -420 Descending FlightAware ADS-B
07:29PM 47.8825 -121.6378 275° West 276 318 10,600 -480 Descending FlightAware ADS-B (EPKK / KRK)
07:30PM 47.8839 -121.6620 275° West 265 305 10,500 -300 Descending FlightAware ADS-B
07:30PM 47.8842 -121.6740 272° West 261 300 10,500  Level FlightAware ADS-B
07:30PM 47.8839 -121.6790 265° West 261 300 10,500 -780 Level FlightAware ADS-B
07:30PM 47.8827 -121.6890 260° West 262 302 10,400 -600 Descending FlightAware ADS-B
07:30PM 47.8813 -121.6970 255° West 265 305 10,400 -720 Level FlightAware ADS-B
07:30PM 47.8791 -121.7050 248° West 265 305 10,300 -780 Descending FlightAware ADS-B
07:30PM 47.8768 -121.7120 244° Southwest 267 307 10,300  Level FlightAware ADS-B
07:30PM 47.8747 -121.7170 238° Southwest 269 310 10,300 -360 Level FlightAware ADS-B
07:30PM 47.8643 -121.7370 232° Southwest 271 312 10,200 -1,200 Descending FlightAware ADS-B
07:30PM 47.8600 -121.7460 235° Southwest 269 310 9,900 -2,700 Descending FlightAware ADS-B
07:31PM 47.8581 -121.7510 240° Southwest 267 307 9,800 -1,380 Descending FlightAware ADS-B
07:31PM 47.8553 -121.7600 245° Southwest 266 306 9,700 -1,200 Descending FlightAware ADS-B
07:31PM 47.8491 -121.7850 250° West 260 299 9,400 -1,500 Descending FlightAware ADS-B
07:31PM 47.8432 -121.8100 251° West 258 297 9,000 -1,560 Descending FlightAware ADS-B
07:31PM 47.8372 -121.8360 251° West 259 298 8,600 -1,560 Descending FlightAware ADS-B
07:32PM 47.8314 -121.8620 252° West 258 297 8,200 -1,680 Descending FlightAware ADS-B
07:32PM 47.8262 -121.8848 251° West 252 290 7,800 -2,040 Descending FlightAware ADS-B (EPKK / KRK)
07:32PM 47.8258 -121.8860 245° Southwest 252 290 7,700 -3,000 Descending FlightAware ADS-B
07:32PM 47.8203 -121.9110 252° West 252 290 7,000 -2,640 Descending FlightAware ADS-B
07:32PM 47.8152 -121.9350 252° West 251 289 6,400 -2,640 Descending FlightAware ADS-B
07:33PM 47.8100 -121.9600 253° West 250 288 5,700 -3,000 Descending FlightAware ADS-B
07:33PM 47.8076 -121.9720 253° West 251 289 5,300 -3,000 Descending FlightAware ADS-B
07:33PM 47.8056 -121.9840 256° West 255 293 5,000 -2,700 Descending FlightAware ADS-B
07:33PM 47.8022 -122.0060 257° West 262 302 4,400 -2,700 Descending FlightAware ADS-B
07:33PM 47.8006 -122.0180 259° West 261 300 4,100 -2,520 Descending FlightAware ADS-B
07:33PM 47.7998 -122.0270 262° West 262 302 3,900 -2,160 Descending FlightAware ADS-B
07:33PM 47.7988 -122.0500 266° West 265 305 3,500 -1,200 Descending FlightAware ADS-B
07:34PM 47.7982 -122.0740 268° West 266 306 3,400 -240 Descending FlightAware ADS-B
07:34PM 47.7976 -122.1020 268° West 265 305 3,400  Level FlightAware ADS-B
07:34PM 47.7970 -122.1290 268° West 264 304 3,400  Level FlightAware ADS-B
07:34PM 47.7964 -122.1580 268° West 263 303 3,400  Level FlightAware ADS-B
07:35PM 47.7960 -122.1810 269° West 261 300 3,400 -240 Level FlightAware ADS-B
07:35PM 47.7954 -122.2090 268° West 246 283 3,300 -540 Descending FlightAware ADS-B
07:35PM 47.7948 -122.2390 268° West 236 272 3,100 -780 Descending FlightAware ADS-B
07:36PM 47.7943 -122.2630 268° West 230 265 2,900 -840 Descending FlightAware ADS-B
07:36PM 47.7938 -122.2870 268° West 226 260 2,700 -960 Descending FlightAware ADS-B
07:36PM 47.7932 -122.3130 268° West 223 257 2,400 -960 Descending FlightAware ADS-B
07:36PM 47.7925 -122.3240 265° West 222 255 2,300 -1,140 Descending FlightAware ADS-B
07:36PM 47.7898 -122.3370 253° West 219 252 2,100 -1,020 Descending FlightAware ADS-B
07:37PM 47.7767 -122.3730 242° Southwest 213 245 1,700 -180 Descending FlightAware ADS-B
07:39PM 47.6761 -122.4220 198° South 175 201 1,600 -60 Descending FlightAware ADS-B
07:39PM 47.6699 -122.4200 168° South 175 201 1,600  Level FlightAware ADS-B
07:39PM 47.6635 -122.4160 157° South 175 201 1,600  Level FlightAware ADS-B
07:40PM 47.6547 -122.4080 149° Southeast 165 190 1,600  Level FlightAware ADS-B
07:40PM 47.6484 -122.4030 152° Southeast 157 181 1,600 -300 Level FlightAware ADS-B
07:40PM 47.6414 -122.3970 150° Southeast 150 173 1,500  Descending FlightAware ADS-B
07:40PM 47.6376 -122.3940 152° Southeast 146 168 1,600  Climbing FlightAware ADS-B
07:40PM 47.6333 -122.3900 148° Southeast 147 169 1,500 -840 Descending FlightAware ADS-B
07:40PM 47.6243 -122.3820 149° Southeast 146 168 1,300 -600 Descending FlightAware ADS-B
07:41PM 47.6153 -122.3750 152° Southeast 146 168 1,200 -780 Descending FlightAware ADS-B
07:41PM 47.6058 -122.3670 150° Southeast 146 168 900 -1,080 Descending FlightAware ADS-B
07:41PM 47.5984 -122.3600 147° Southeast 146 168 700 -780 Descending FlightAware ADS-B
07:42PM 47.5876 -122.3510 151° Southeast 146 168 500 -300 Descending FlightAware ADS-B
07:43PM 47.5536 -122.3231 151° Southeast 147 169 300 -300 Descending Seattle Center
07:43PM 47.5347 -122.3081 152° Southeast 180 207 100 -420 Descending Seattle Center
07:46PM 47.5300 -122.3020 247° West  Level Estimated